Time;durP1;ratioP1;P1;durP2;ratioP2;P2;SDS_P1;SDS_P2;PMS_P1;PMS_P2;Temp;Humidity;BMP_temperature;BMP_pressure;BME280_temperature;BME280_humidity;BME280_pressure;Samples;Min_cycle;Max_cycle;Signal;HPM_P1;HPM_P2
2021/12/12 00:02:57;;;;;;;23.52;8.25;;;;;;;4.29;68.49;99966.94;5103441;29;20059;-67
2021/12/12 00:05:55;;;;;;;19.73;8.75;;;;;;;4.59;67.38;99994.19;5110410;29;20059;-67
2021/12/12 00:08:49;;;;;;;19.45;8.68;;;;;;;4.59;66.72;99996.81;5102976;29;20047;-66
2021/12/12 00:11:40;;;;;;;16.23;8.40;;;;;;;4.52;66.65;100002.50;5103091;29;20276;-67
2021/12/12 00:14:33;;;;;;;23.10;9.63;;;;;;;4.40;66.58;100012.72;5103168;29;20474;-67
2021/12/12 00:17:26;;;;;;;21.13;8.80;;;;;;;4.16;67.23;99977.22;5102662;29;20047;-67
2021/12/12 00:20:20;;;;;;;24.85;9.52;;;;;;;4.08;66.61;99950.53;5102355;29;20047;-67
2021/12/12 00:23:10;;;;;;;22.70;8.82;;;;;;;4.22;66.69;100001.38;5103495;29;20055;-69
2021/12/12 00:26:02;;;;;;;26.38;9.40;;;;;;;4.17;66.59;100006.03;5102560;29;20586;-66
2021/12/12 00:28:53;;;;;;;20.55;8.60;;;;;;;3.96;66.82;100004.47;5103105;29;20060;-66
2021/12/12 00:31:45;;;;;;;16.08;8.48;;;;;;;3.93;66.79;100015.97;5102750;29;20047;-66
2021/12/12 00:34:39;;;;;;;21.98;9.13;;;;;;;3.90;66.78;100010.88;5102707;29;20059;-66
2021/12/12 00:37:30;;;;;;;;;;;;;;;3.70;66.86;100022.34;5101735;29;20118;-66
2021/12/12 00:40:23;;;;;;;20.55;8.45;;;;;;;3.66;66.88;100023.44;5102613;29;19978;-66
2021/12/12 00:43:21;;;;;;;19.83;8.90;;;;;;;3.56;67.10;100021.34;5102782;29;20114;-66
2021/12/12 00:46:12;;;;;;;16.23;7.70;;;;;;;3.63;66.82;100026.22;5102149;29;20530;-66
2021/12/12 00:49:03;;;;;;;20.10;7.45;;;;;;;3.40;68.15;100031.72;5102853;29;20054;-66
2021/12/12 00:51:55;;;;;;;22.42;7.75;;;;;;;3.51;67.15;100032.06;5101520;29;20054;-66
2021/12/12 00:54:46;;;;;;;22.13;8.13;;;;;;;3.26;68.09;100035.84;5102218;29;20426;-66
2021/12/12 00:57:37;;;;;;;20.92;8.13;;;;;;;3.25;68.51;100043.78;5102004;29;20118;-66
2021/12/12 01:00:36;;;;;;;16.52;8.50;;;;;;;3.25;68.99;100034.16;5102061;29;20086;-66
2021/12/12 01:03:31;;;;;;;23.02;8.27;;;;;;;3.44;68.29;100028.84;5103999;29;20054;-67
2021/12/12 01:06:24;;;;;;;16.95;8.52;;;;;;;3.47;68.34;100036.56;5112761;29;20426;-67
2021/12/12 01:09:24;;;;;;;25.20;8.65;;;;;;;3.37;68.35;100031.84;5102686;29;20418;-67
2021/12/12 01:12:21;;;;;;;25.20;9.45;;;;;;;3.66;67.98;100044.41;5082571;29;20051;-66
2021/12/12 01:15:20;;;;;;;24.60;8.57;;;;;;;3.56;69.20;100055.44;5082688;29;20058;-66
2021/12/12 01:18:16;;;;;;;17.75;9.63;;;;;;;3.53;68.52;100059.03;5085029;29;20066;-67
2021/12/12 01:21:13;;;;;;;27.42;8.85;;;;;;;3.72;68.64;100054.63;5102147;29;20187;-67
2021/12/12 01:24:10;;;;;;;22.05;8.27;;;;;;;3.61;68.53;100051.69;5101872;29;20070;-67
2021/12/12 01:27:03;;;;;;;22.42;8.93;;;;;;;3.62;68.68;100055.16;5101062;29;20050;-67
2021/12/12 01:29:53;;;;;;;19.15;7.88;;;;;;;3.60;68.70;100060.44;5102215;29;20067;-67
2021/12/12 01:32:46;;;;;;;25.88;7.95;;;;;;;3.67;68.76;100061.00;5101936;29;20522;-67
2021/12/12 01:35:39;;;;;;;22.90;8.93;;;;;;;3.69;68.42;100060.00;5102311;29;20096;-67
2021/12/12 01:41:58;;;;;;;21.08;6.45;;;;;;;3.95;66.87;100071.88;5101843;29;20059;-67
2021/12/12 01:44:56;;;;;;;18.80;6.53;;;;;;;3.98;66.10;100055.13;5102112;29;20047;-67
2021/12/12 01:47:57;;;;;;;17.50;6.28;;;;;;;4.31;66.06;100059.59;5101570;29;20119;-66
2021/12/12 01:50:55;;;;;;;15.93;5.43;;;;;;;4.19;65.24;100059.28;5101303;29;20138;-67
2021/12/12 01:53:49;;;;;;;24.40;6.60;;;;;;;4.23;65.73;100059.97;5082108;29;20044;-66
2021/12/12 01:56:49;;;;;;;17.05;5.93;;;;;;;4.33;65.62;100062.97;5081610;29;20147;-66
2021/12/12 01:59:41;;;;;;;16.48;5.47;;;;;;;4.36;65.43;100062.84;5082228;29;20051;-66
2021/12/12 02:02:34;;;;;;;18.60;5.10;;;;;;;4.30;64.69;100045.59;5082358;29;20541;-67
2021/12/12 02:05:26;;;;;;;17.58;4.65;;;;;;;4.53;63.89;100067.22;5109285;29;20062;-66
2021/12/12 02:08:19;;;;;;;16.20;4.82;;;;;;;4.59;64.07;100073.00;5112752;29;20054;-66
2021/12/12 02:11:16;;;;;;;10.90;4.53;;;;;;;4.54;65.17;100076.81;5123316;28;20186;-66
2021/12/12 02:14:12;;;;;;;15.55;5.25;;;;;;;4.56;64.88;100062.66;5125243;28;20047;-67
2021/12/12 02:17:18;;;;;;;13.70;5.22;;;;;;;4.60;64.21;100077.34;5124588;29;20054;-67
2021/12/12 02:20:27;;;;;;;16.98;5.07;;;;;;;4.60;64.20;100090.47;5125343;29;20050;-67
2021/12/12 02:23:29;;;;;;;15.43;5.15;;;;;;;4.74;63.29;100087.13;5112045;29;20112;-66
2021/12/12 02:35:54;;;;;;;13.05;5.35;;;;;;;4.82;63.91;100095.44;5104425;29;20055;-67
2021/12/12 02:38:45;;;;;;;11.45;5.18;;;;;;;4.75;63.82;100096.69;5104644;29;20058;-67
2021/12/12 02:41:36;;;;;;;16.13;4.68;;;;;;;4.74;64.25;100094.16;5104525;29;20532;-67
2021/12/12 02:44:30;;;;;;;10.93;4.85;;;;;;;4.86;63.97;100085.63;5104724;29;20114;-67
2021/12/12 02:47:31;;;;;;;13.50;4.68;;;;;;;4.66;63.50;100079.63;5104650;29;20058;-67
2021/12/12 02:50:32;;;;;;;13.63;4.82;;;;;;;4.76;62.84;100087.88;5104372;29;20114;-66
2021/12/12 02:53:30;;;;;;;12.38;4.85;;;;;;;5.02;62.45;100081.25;5085215;29;20064;-67
2021/12/12 02:56:28;;;;;;;16.00;5.35;;;;;;;4.81;63.82;100079.78;5084345;29;20411;-66
2021/12/12 02:59:23;;;;;;;12.45;5.07;;;;;;;4.70;63.86;100070.69;5085228;29;20055;-67
2021/12/12 03:02:27;;;;;;;15.43;5.45;;;;;;;4.77;63.03;100065.97;5084848;29;20534;-67
2021/12/12 03:05:21;;;;;;;12.05;4.40;;;;;;;4.78;63.17;100058.91;5111068;29;20051;-66
2021/12/12 03:08:12;;;;;;;10.75;3.90;;;;;;;4.87;61.67;100063.69;5097402;29;20199;-66
2021/12/12 03:11:03;;;;;;;11.65;3.90;;;;;;;4.87;62.08;100064.53;5097324;29;20055;-67
2021/12/12 03:13:54;;;;;;;12.65;3.60;;;;;;;4.92;61.10;100059.88;5104516;29;20435;-67
2021/12/12 03:16:46;;;;;;;13.95;3.08;;;;;;;4.85;61.72;100065.53;5103975;29;20063;-67
2021/12/12 03:19:37;;;;;;;11.68;3.20;;;;;;;4.90;61.54;100066.13;5104265;29;20300;-67
2021/12/12 03:22:28;;;;;;;10.55;3.10;;;;;;;4.77;60.86;100065.06;5102435;29;20070;-67
2021/12/12 03:25:18;;;;;;;10.13;2.58;;;;;;;4.82;61.05;100063.06;5103918;29;20693;-67
2021/12/12 03:28:13;;;;;;;8.43;3.00;;;;;;;4.75;61.63;100062.53;5104140;29;20215;-68
2021/12/12 03:31:06;;;;;;;9.90;2.78;;;;;;;4.74;62.12;100070.53;5104386;29;20059;-69
2021/12/12 03:33:59;;;;;;;7.88;2.78;;;;;;;4.61;62.14;100075.56;5103871;29;20062;-66
2021/12/12 03:36:51;;;;;;;6.00;2.90;;;;;;;4.63;62.61;100079.78;5103501;29;20122;-66
2021/12/12 03:39:44;;;;;;;15.60;3.30;;;;;;;4.68;62.07;100079.56;5103364;29;20058;-67
2021/12/12 03:42:35;;;;;;;9.97;3.00;;;;;;;4.45;62.49;100072.88;5103501;29;20095;-68
2021/12/12 03:45:27;;;;;;;10.90;3.40;;;;;;;4.46;61.86;100072.78;5103706;29;20176;-67
2021/12/12 03:48:29;;;;;;;9.05;2.78;;;;;;;4.57;61.65;100076.63;5102441;29;20048;-68
2021/12/12 03:51:22;;;;;;;5.60;2.92;;;;;;;4.66;61.39;100082.25;5102385;29;20138;-68
2021/12/12 03:54:12;;;;;;;8.32;2.42;;;;;;;4.16;61.83;100064.69;5103339;29;20588;-69
2021/12/12 03:57:04;;;;;;;11.88;3.33;;;;;;;4.35;61.52;100075.13;5102120;29;20141;-69
2021/12/12 03:59:54;;;;;;;8.73;3.15;;;;;;;4.62;60.81;100080.72;5103545;29;20425;-69
2021/12/12 04:02:44;;;;;;;12.15;4.00;;;;;;;4.42;60.65;100054.66;5103586;29;20054;-66
2021/12/12 04:05:35;;;;;;;8.63;3.70;;;;;;;4.08;62.59;100069.47;5112920;29;20107;-67
2021/12/12 04:08:28;;;;;;;10.50;3.42;;;;;;;3.76;63.83;100066.66;5104434;29;20043;-67
2021/12/12 04:11:29;;;;;;;7.70;3.35;;;;;;;3.83;64.34;100069.81;5103060;29;20078;-67
2021/12/12 04:14:21;;;;;;;12.65;4.07;;;;;;;3.95;63.98;100056.13;5103672;29;20448;-67
2021/12/12 04:17:15;;;;;;;8.05;3.25;;;;;;;4.09;63.62;100065.91;5102827;29;20067;-67
2021/12/12 04:20:12;;;;;;;13.55;4.28;;;;;;;4.09;64.22;100067.69;5103015;29;20046;-67
2021/12/12 04:23:13;;;;;;;9.82;3.85;;;;;;;4.29;63.45;100074.56;5102674;29;20123;-67
2021/12/12 04:26:10;;;;;;;11.10;3.72;;;;;;;4.32;63.55;100067.38;5102780;29;20537;-67
2021/12/12 04:29:11;;;;;;;12.95;4.10;;;;;;;4.34;63.34;100076.06;5137171;23;20400;-72
2021/12/12 04:32:09;;;;;;;8.10;3.60;;;;;;;4.31;63.83;100075.34;5141920;28;20433;-69
2021/12/12 04:35:08;;;;;;;8.85;3.78;;;;;;;4.27;63.39;100072.00;5139401;28;20074;-72
2021/12/12 04:38:00;;;;;;;10.85;4.75;;;;;;;4.41;63.85;100093.19;5149003;28;20587;-71
2021/12/12 04:40:50;;;;;;;14.25;4.32;;;;;;;4.45;63.36;100088.63;5133627;28;20049;-71
2021/12/12 04:43:41;;;;;;;15.52;4.93;;;;;;;4.48;63.16;100093.72;5130398;28;20117;-72
2021/12/12 04:49:55;;;;;;;13.88;5.20;;;;;;;4.36;63.22;100082.06;5141015;28;20141;-72
2021/12/12 04:50:06;;;;;;;16.67;5.70;;;;;;;4.59;62.86;100101.91;5131028;28;20146;-72
2021/12/12 04:53:01;;;;;;;16.33;5.50;;;;;;;4.68;62.68;100104.06;5118489;29;20568;-72
2021/12/12 04:56:11;;;;;;;10.18;4.97;;;;;;;4.56;62.68;100099.41;5121512;28;20066;-72
2021/12/12 04:59:07;;;;;;;12.55;4.65;;;;;;;4.54;63.60;100089.94;5122537;29;20065;-72
2021/12/12 05:02:18;;;;;;;9.60;5.35;;;;;;;4.60;63.35;100111.50;5121557;29;20130;-72
2021/12/12 05:05:24;;;;;;;10.88;4.55;;;;;;;4.54;62.73;100100.44;5120057;29;20062;-72
2021/12/12 05:08:25;;;;;;;13.10;5.07;;;;;;;4.61;62.21;100102.69;5119696;28;20148;-72
2021/12/12 05:11:33;;;;;;;18.58;4.57;;;;;;;4.47;63.28;100105.16;5121165;29;20047;-72
2021/12/12 05:14:29;;;;;;;9.23;4.45;;;;;;;4.52;62.55;100102.28;5121349;29;20070;-71
2021/12/12 05:17:35;;;;;;;9.63;4.78;;;;;;;4.61;62.33;100105.31;5120631;29;20125;-71
2021/12/12 05:20:32;;;;;;;11.20;4.53;;;;;;;4.58;62.27;100092.31;5120893;29;20122;-72
2021/12/12 05:23:26;;;;;;;9.25;4.18;;;;;;;4.57;62.13;100103.78;5121661;29;20138;-71
2021/12/12 05:26:18;;;;;;;;;;;;;;;4.54;62.16;100106.56;5101461;29;20043;-72
2021/12/12 05:29:21;;;;;;;10.38;4.43;;;;;;;4.51;61.96;100106.72;5101987;29;19937;-72
2021/12/12 05:32:13;;;;;;;7.78;4.03;;;;;;;4.09;63.28;100102.66;5100665;29;20067;-71
2021/12/12 05:35:07;;;;;;;9.75;4.75;;;;;;;4.12;63.22;100105.13;5115724;29;20206;-73
2021/12/12 05:37:58;;;;;;;12.90;4.68;;;;;;;4.26;62.75;100101.81;5114804;29;20085;-72
2021/12/12 05:40:49;;;;;;;11.18;4.70;;;;;;;4.02;62.71;100088.16;5120381;28;20039;-72
2021/12/12 05:43:40;;;;;;;8.27;4.28;;;;;;;3.94;63.61;100098.16;5121958;29;20051;-72
2021/12/12 05:46:30;;;;;;;10.63;4.32;;;;;;;4.13;62.94;100112.09;5123746;28;20137;-72
2021/12/12 05:49:20;;;;;;;12.02;5.10;;;;;;;3.88;63.61;100114.22;5126175;29;20050;-72
2021/12/12 05:52:17;;;;;;;9.65;4.50;;;;;;;3.92;63.60;100093.00;5119954;29;20054;-72
2021/12/12 05:55:09;;;;;;;12.45;5.00;;;;;;;4.06;63.33;100104.59;5105736;29;20059;-72
2021/12/12 05:58:02;;;;;;;11.48;5.25;;;;;;;3.90;63.79;100097.47;5104654;29;20050;-72
2021/12/12 06:00:56;;;;;;;12.23;4.60;;;;;;;3.93;63.95;100104.34;5105118;29;20107;-72
2021/12/12 06:03:48;;;;;;;11.32;4.55;;;;;;;3.95;63.88;100105.13;5121383;28;20051;-71
2021/12/12 06:06:41;;;;;;;12.60;4.75;;;;;;;3.96;63.79;100098.94;5123122;29;20043;-71
2021/12/12 06:09:32;;;;;;;16.15;7.78;;;;;;;3.85;63.59;100099.47;5125422;29;20106;-72
2021/12/12 06:12:24;;;;;;;10.60;5.15;;;;;;;3.94;63.40;100112.16;5123669;28;20062;-72
2021/12/12 06:15:17;;;;;;;10.63;5.57;;;;;;;3.99;63.13;100111.91;5122410;29;20051;-70
2021/12/12 06:18:09;;;;;;;17.83;5.80;;;;;;;3.80;63.89;100126.84;5124653;29;20531;-71
2021/12/12 06:21:00;;;;;;;9.15;5.00;;;;;;;3.85;63.60;100127.50;5124465;29;20046;-70
2021/12/12 06:23:51;;;;;;;7.35;4.45;;;;;;;3.72;63.91;100140.34;5125663;29;20047;-72
2021/12/12 06:26:41;;;;;;;12.20;5.25;;;;;;;3.46;64.93;100141.53;5124365;29;20753;-73
2021/12/12 06:29:32;;;;;;;13.20;5.30;;;;;;;3.56;64.11;100140.19;5124367;29;20457;-72
2021/12/12 06:32:22;;;;;;;8.52;5.15;;;;;;;3.38;65.34;100141.91;5123677;29;20529;-72
2021/12/12 06:35:13;;;;;;;11.82;5.93;;;;;;;3.64;64.24;100134.59;5123667;29;20079;-72
2021/12/12 06:38:07;;;;;;;12.30;5.80;;;;;;;3.42;64.73;100140.00;5123428;29;20410;-71
2021/12/12 06:40:58;;;;;;;14.23;5.82;;;;;;;3.61;64.18;100127.72;5118702;28;20520;-72
2021/12/12 06:43:49;;;;;;;15.45;5.18;;;;;;;3.58;64.62;100145.38;5105221;29;20103;-72
2021/12/12 06:46:41;;;;;;;11.20;5.75;;;;;;;3.69;63.96;100150.97;5103712;29;20063;-71
2021/12/12 06:49:32;;;;;;;11.00;5.68;;;;;;;3.86;63.19;100148.38;5123190;28;20087;-72
2021/12/12 06:52:22;;;;;;;12.02;5.85;;;;;;;3.79;62.87;100146.97;5121765;28;20719;-72
2021/12/12 06:55:13;;;;;;;13.32;6.38;;;;;;;3.69;63.76;100161.47;5124160;29;20055;-72
2021/12/12 06:58:07;;;;;;;10.25;5.63;;;;;;;3.58;63.68;100151.47;5123205;29;20142;-72
2021/12/12 07:01:08;;;;;;;10.38;5.88;;;;;;;3.69;63.62;100164.94;5124045;29;20054;-72
2021/12/12 07:03:59;;;;;;;12.48;5.88;;;;;;;3.83;63.00;100172.16;5124684;28;20061;-72
2021/12/12 07:06:57;;;;;;;10.80;5.72;;;;;;;3.62;63.51;100165.28;5121541;28;20054;-72
2021/12/12 07:09:48;;;;;;;12.38;5.75;;;;;;;3.99;62.95;100167.03;5122706;29;20133;-73
2021/12/12 07:12:40;;;;;;;9.75;5.18;;;;;;;3.68;64.00;100171.09;5123616;28;20612;-72
2021/12/12 07:15:44;;;;;;;8.88;5.72;;;;;;;3.24;65.57;100168.72;5124907;29;20548;-71
2021/12/12 07:18:34;;;;;;;;;;;;;;;2.97;65.80;100165.56;5123718;29;20050;-71
2021/12/12 07:21:29;;;;;;;8.30;5.45;;;;;;;2.86;65.81;100146.84;5126609;28;19933;-71
2021/12/12 07:24:22;;;;;;;10.20;5.80;;;;;;;2.91;66.35;100165.81;5121383;29;20055;-70
2021/12/12 07:27:16;;;;;;;10.45;6.00;;;;;;;2.99;66.43;100158.50;5104157;29;20074;-71
2021/12/12 07:30:10;;;;;;;13.85;6.32;;;;;;;3.10;66.06;100163.25;5105997;29;20051;-70
2021/12/12 07:33:10;;;;;;;12.80;6.50;;;;;;;3.18;66.00;100173.38;5105185;29;20062;-70
2021/12/12 07:36:05;;;;;;;14.55;6.18;;;;;;;3.25;65.60;100175.69;5122227;29;20055;-70
2021/12/12 07:39:01;;;;;;;10.38;6.05;;;;;;;3.17;66.18;100172.53;5123699;29;20446;-70
2021/12/12 07:41:52;;;;;;;10.95;6.45;;;;;;;3.42;65.63;100177.53;5122560;29;20502;-70
2021/12/12 07:44:44;;;;;;;10.98;6.18;;;;;;;3.55;65.18;100180.47;5124206;29;20515;-71
2021/12/12 07:47:34;;;;;;;11.13;6.03;;;;;;;3.64;65.61;100177.44;5121443;29;20125;-70
2021/12/12 07:50:27;;;;;;;11.07;6.25;;;;;;;3.76;64.67;100175.97;5122614;28;20062;-71
2021/12/12 07:53:19;;;;;;;15.65;6.38;;;;;;;4.11;62.94;100171.69;5110140;28;20063;-70
2021/12/12 07:56:10;;;;;;;11.45;6.43;;;;;;;4.13;63.67;100169.81;5102540;29;20063;-71
2021/12/12 07:59:04;;;;;;;9.30;5.78;;;;;;;4.14;63.20;100171.56;5103876;29;20575;-70
2021/12/12 08:01:54;;;;;;;11.07;5.95;;;;;;;3.99;64.63;100172.28;5102787;29;20723;-69
2021/12/12 08:04:45;;;;;;;8.95;6.15;;;;;;;4.11;63.71;100169.06;5104167;29;20054;-71
2021/12/12 08:07:36;;;;;;;12.00;6.15;;;;;;;4.27;63.63;100171.78;5128649;28;20148;-71
2021/12/12 08:10:28;;;;;;;9.23;6.03;;;;;;;4.00;62.84;100109.22;5141681;28;20167;-69
2021/12/12 08:13:18;;;;;;;12.95;6.50;;;;;;;4.75;62.26;100178.16;5125175;28;20054;-71
2021/12/12 08:16:09;;;;;;;11.35;7.00;;;;;;;4.71;62.71;100181.88;5123160;28;20054;-69
2021/12/12 08:19:00;;;;;;;11.68;6.03;;;;;;;4.76;62.64;100174.59;5128484;28;20114;-72
2021/12/12 08:21:54;;;;;;;12.50;5.90;;;;;;;4.70;63.69;100181.03;5124114;28;20579;-69
2021/12/12 08:24:45;;;;;;;12.88;6.40;;;;;;;4.87;62.76;100181.94;5132081;28;20122;-69
2021/12/12 08:27:36;;;;;;;16.15;5.82;;;;;;;5.19;60.86;100178.47;5130104;28;20058;-71
2021/12/12 08:30:28;;;;;;;9.07;5.32;;;;;;;5.26;60.54;100167.63;5125559;28;20058;-68
2021/12/12 08:33:18;;;;;;;11.52;5.68;;;;;;;5.18;60.80;100182.03;5126595;28;20409;-69
2021/12/12 08:36:09;;;;;;;9.88;5.97;;;;;;;5.42;60.49;100181.66;5121888;28;20050;-67
2021/12/12 08:39:00;;;;;;;8.50;5.72;;;;;;;5.28;60.89;100190.28;5130971;28;20043;-71
2021/12/12 08:41:51;;;;;;;9.13;5.53;;;;;;;4.97;62.75;100179.66;5123567;28;20133;-67
2021/12/12 08:44:42;;;;;;;9.93;4.82;;;;;;;5.09;61.80;100182.50;5120669;28;20515;-67
2021/12/12 08:47:35;;;;;;;7.28;4.55;;;;;;;5.24;61.49;100193.19;5123850;28;20131;-67
2021/12/12 08:50:28;;;;;;;8.50;4.55;;;;;;;5.29;61.80;100193.78;5123499;28;20047;-68
2021/12/12 08:53:19;;;;;;;9.85;4.68;;;;;;;5.45;61.43;100194.66;5122367;28;20110;-68
2021/12/12 08:56:18;;;;;;;7.13;3.83;;;;;;;5.61;59.88;100195.53;5123514;28;20051;-69
2021/12/12 08:59:16;;;;;;;10.90;6.85;;;;;;;5.47;61.76;100199.84;5123633;28;20165;-68
2021/12/12 09:02:10;;;;;;;17.20;8.85;;;;;;;5.41;62.54;100201.03;5122392;28;20035;-68
2021/12/12 09:05:07;;;;;;;12.27;7.20;;;;;;;5.45;61.53;100205.19;5121066;28;20202;-69
2021/12/12 09:08:02;;;;;;;13.02;8.18;;;;;;;5.54;62.86;100207.31;5121068;28;20508;-68
2021/12/12 09:11:04;;;;;;;15.63;6.95;;;;;;;5.59;62.68;100197.38;5121490;28;20700;-69
2021/12/12 09:14:02;;;;;;;16.48;8.23;;;;;;;5.62;63.22;100201.63;5122418;28;20058;-68
2021/12/12 09:17:12;;;;;;;16.00;8.00;;;;;;;5.55;64.06;100195.84;5121666;28;20110;-69
2021/12/12 09:20:14;;;;;;;10.05;6.28;;;;;;;5.67;62.21;100211.94;5127002;28;20053;-67
2021/12/12 09:23:14;;;;;;;13.35;6.93;;;;;;;5.77;61.27;100192.09;5133395;28;20054;-70
2021/12/12 09:26:10;;;;;;;8.68;4.63;;;;;;;6.32;59.41;100204.81;5122215;28;20156;-68
2021/12/12 09:29:16;;;;;;;5.30;3.85;;;;;;;6.38;59.41;100201.00;5124456;28;20054;-69
2021/12/12 09:32:21;;;;;;;5.43;3.30;;;;;;;6.54;58.15;100192.13;5124460;28;20046;-69
2021/12/12 09:35:40;;;;;;;5.15;3.80;;;;;;;6.54;58.17;100175.47;5125044;28;20055;-69
2021/12/12 09:38:38;;;;;;;4.07;3.00;;;;;;;6.38;58.27;100193.94;5124240;28;20054;-68
2021/12/12 09:42:06;;;;;;;7.30;3.38;;;;;;;6.88;56.62;100187.50;5133904;28;20539;-68
2021/12/12 09:45:38;;;;;;;6.40;3.50;;;;;;;6.75;57.26;100189.16;5141729;28;20129;-68
2021/12/12 09:52:36;;;;;;;5.70;3.05;;;;;;;7.39;54.85;100179.19;5099215;29;20525;-68
2021/12/12 09:55:32;;;;;;;6.25;2.92;;;;;;;7.51;53.17;100186.31;5099974;29;20095;-67
2021/12/12 09:59:10;;;;;;;6.70;3.25;;;;;;;7.06;55.50;100173.22;5120629;28;20106;-68
2021/12/12 10:02:19;;;;;;;7.85;2.95;;;;;;;7.10;56.64;100165.97;5076785;28;20178;-69
2021/12/12 10:05:25;;;;;;;5.80;3.22;;;;;;;7.10;56.94;100163.34;5133361;28;20464;-67
2021/12/12 10:08:34;;;;;;;6.80;3.28;;;;;;;7.31;54.35;100163.81;5134242;28;20428;-67
2021/12/12 10:11:27;;;;;;;9.25;3.53;;;;;;;7.40;54.57;100160.59;5140807;28;20050;-67
2021/12/12 10:14:46;;;;;;;6.28;3.20;;;;;;;7.27;55.20;100154.38;5141522;28;20484;-67
2021/12/12 10:17:45;;;;;;;4.53;2.70;;;;;;;7.26;55.44;100157.97;5141831;28;20059;-67
2021/12/12 10:20:47;;;;;;;3.50;2.50;;;;;;;7.05;56.60;100152.19;5139049;28;20069;-68
2021/12/12 10:24:09;;;;;;;5.80;2.40;;;;;;;7.50;55.50;100150.31;5120251;28;20413;-67
2021/12/12 10:27:11;;;;;;;6.32;3.05;;;;;;;7.35;57.39;100152.13;5120738;29;20130;-68
2021/12/12 10:30:08;;;;;;;3.67;2.35;;;;;;;7.44;56.10;100148.91;5132825;23;20046;-67
2021/12/12 10:33:19;;;;;;;3.17;2.15;;;;;;;7.54;54.65;100152.66;5117794;29;20047;-68
2021/12/12 10:36:22;;;;;;;5.13;2.67;;;;;;;7.51;55.10;100144.94;5121789;28;20051;-68
2021/12/12 10:39:22;;;;;;;3.92;2.30;;;;;;;7.56;57.44;100157.03;5120933;29;20506;-68
2021/12/12 10:42:26;;;;;;;4.95;2.85;;;;;;;7.67;55.52;100165.94;5104022;29;20115;-67
2021/12/12 10:45:22;;;;;;;6.67;2.83;;;;;;;7.53;54.74;100158.06;5104432;29;20147;-67
2021/12/12 10:48:17;;;;;;;3.97;2.70;;;;;;;7.85;53.17;100153.38;5103821;29;20146;-67
2021/12/12 10:51:16;;;;;;;3.22;2.25;;;;;;;7.87;53.56;100154.13;5102561;29;20570;-67
2021/12/12 10:54:15;;;;;;;9.48;2.30;;;;;;;7.86;54.35;100160.34;5104048;29;20051;-67
2021/12/12 10:57:16;;;;;;;6.55;2.88;;;;;;;7.93;55.33;100151.09;5102205;29;20062;-67
2021/12/12 11:00:18;;;;;;;4.03;2.60;;;;;;;7.70;54.39;100141.16;5104188;29;20072;-67
2021/12/12 11:03:23;;;;;;;8.18;2.42;;;;;;;7.90;53.20;100134.59;5102841;29;20059;-67
2021/12/12 11:06:36;;;;;;;6.45;2.50;;;;;;;8.36;51.90;100132.44;5083264;29;20055;-67
2021/12/12 11:09:34;;;;;;;5.75;3.13;;;;;;;8.13;53.33;100144.50;5084489;29;20130;-67
2021/12/12 11:12:36;;;;;;;4.80;2.38;;;;;;;7.98;52.76;100135.81;5083870;29;20745;-67
2021/12/12 11:15:55;;;;;;;7.55;2.75;;;;;;;8.05;52.13;100135.41;5084259;29;20426;-67
2021/12/12 11:19:16;;;;;;;6.63;3.00;;;;;;;7.90;53.41;100146.00;5084342;29;20051;-67
2021/12/12 11:22:23;;;;;;;6.47;3.60;;;;;;;7.92;54.73;100130.91;5083894;29;20052;-67
2021/12/12 11:25:37;;;;;;;5.22;3.70;;;;;;;7.71;55.45;100119.06;5096487;29;20070;-67
2021/12/12 11:28:33;;;;;;;5.05;2.88;;;;;;;7.80;55.93;100126.41;5103615;29;20044;-66
2021/12/12 11:31:26;;;;;;;5.97;3.25;;;;;;;7.72;55.28;100134.00;5103206;29;20050;-67
2021/12/12 11:34:17;;;;;;;8.60;3.00;;;;;;;7.96;54.38;100121.84;5103644;29;20059;-68
2021/12/12 11:37:15;;;;;;;5.63;3.00;;;;;;;8.08;54.70;100129.91;5102602;29;20339;-68
2021/12/12 11:40:19;;;;;;;6.95;3.25;;;;;;;8.01;53.85;100118.88;5103008;29;20058;-66
2021/12/12 11:43:26;;;;;;;6.10;3.20;;;;;;;7.80;55.35;100104.44;5102258;29;20067;-67
2021/12/12 11:46:32;;;;;;;6.47;3.63;;;;;;;8.29;53.60;100117.09;5102039;29;20058;-66
2021/12/12 11:49:27;;;;;;;5.88;2.90;;;;;;;7.80;54.84;100115.84;5102262;29;20426;-67
2021/12/12 11:52:33;;;;;;;8.68;3.78;;;;;;;7.87;53.24;100109.22;5100699;29;20141;-67
2021/12/12 11:55:47;;;;;;;6.85;3.20;;;;;;;8.39;52.76;100118.22;5083488;29;20059;-68
2021/12/12 11:59:07;;;;;;;7.75;3.10;;;;;;;8.23;53.43;100107.78;5083488;29;20068;-68
2021/12/12 12:02:03;;;;;;;9.93;3.20;;;;;;;8.57;53.03;100110.81;5083055;29;20059;-68
2021/12/12 12:05:06;;;;;;;4.57;2.60;;;;;;;8.04;53.68;100096.72;5083516;29;20048;-69
2021/12/12 12:08:35;;;;;;;6.32;2.53;;;;;;;8.03;53.85;100093.22;5087610;29;20052;-69
2021/12/12 12:11:38;;;;;;;5.70;3.08;;;;;;;8.36;52.20;100090.16;5103277;29;20088;-67
2021/12/12 12:14:43;;;;;;;7.10;2.93;;;;;;;7.97;53.54;100091.00;5103422;29;20135;-68
2021/12/12 12:17:36;;;;;;;5.68;2.80;;;;;;;8.51;51.50;100088.31;5102088;29;20535;-67
2021/12/12 12:20:35;;;;;;;10.30;3.42;;;;;;;8.48;52.19;100096.44;5103166;29;20054;-67
2021/12/12 12:23:47;;;;;;;5.15;2.70;;;;;;;8.28;53.78;100095.13;5102758;29;20054;-69
2021/12/12 12:26:55;;;;;;;4.28;2.47;;;;;;;8.61;52.94;100094.66;5100922;29;20071;-66
2021/12/12 12:30:04;;;;;;;6.28;2.10;;;;;;;8.59;52.18;100093.06;5102687;29;20059;-67
2021/12/12 12:33:45;;;;;;;5.63;2.63;;;;;;;8.69;53.03;100094.13;5102489;29;20070;-68
2021/12/12 12:37:00;;;;;;;6.82;2.20;;;;;;;8.53;52.44;100099.63;5101399;29;20051;-67
2021/12/12 12:40:19;;;;;;;;;;;;;;;8.60;53.92;100100.03;5102249;29;20094;-65
2021/12/12 12:43:34;;;;;;;3.50;2.05;;;;;;;8.73;53.39;100106.19;5102269;29;20026;-68
2021/12/12 12:46:35;;;;;;;;;;;;;;;8.62;53.63;100106.09;5102374;29;20115;-67
2021/12/12 12:50:07;;;;;;;5.78;2.00;;;;;;;8.89;52.60;100101.53;5103122;29;20460;-68
2021/12/12 12:53:21;;;;;;;3.85;2.25;;;;;;;9.02;51.54;100092.75;5082014;29;20151;-66
2021/12/12 12:56:23;;;;;;;4.63;2.25;;;;;;;9.18;50.59;100085.44;5081617;29;20040;-67
2021/12/12 12:59:29;;;;;;;7.68;2.38;;;;;;;8.94;51.17;100078.28;5083258;29;20055;-67
2021/12/12 13:02:42;;;;;;;7.05;2.45;;;;;;;8.89;52.18;100071.59;5082254;29;20165;-70
2021/12/12 13:06:00;;;;;;;4.25;2.03;;;;;;;9.04;53.66;100065.25;5086333;29;20078;-69
2021/12/12 13:08:50;;;;;;;4.93;2.08;;;;;;;8.97;53.04;100060.47;5102136;29;20490;-69
2021/12/12 13:11:49;;;;;;;5.60;2.22;;;;;;;9.15;51.66;100060.03;5100583;29;20051;-68
2021/12/12 13:14:58;;;;;;;6.18;2.42;;;;;;;9.12;52.03;100060.25;5102610;29;20052;-66
2021/12/12 13:18:07;;;;;;;10.82;2.53;;;;;;;8.90;54.61;100060.91;5101386;29;20048;-68
2021/12/12 13:21:54;;;;;;;11.55;3.15;;;;;;;8.90;54.28;100066.19;5101987;29;20043;-68
2021/12/12 13:25:05;;;;;;;8.90;2.58;;;;;;;8.83;54.78;100062.28;5071716;29;20087;-67
2021/12/12 13:28:17;;;;;;;5.70;2.25;;;;;;;8.88;55.20;100057.53;5081670;29;20131;-69
2021/12/12 13:31:20;;;;;;;8.40;2.97;;;;;;;9.01;53.89;100054.88;5082106;29;20107;-69
2021/12/12 13:34:19;;;;;;;7.60;2.30;;;;;;;9.08;53.18;100052.66;5082556;29;20055;-68
2021/12/12 13:37:34;;;;;;;4.72;1.92;;;;;;;9.21;52.23;100055.28;5081208;29;20055;-68
2021/12/12 13:40:53;;;;;;;5.90;2.28;;;;;;;8.93;54.23;100070.44;5097434;29;20187;-69
2021/12/12 13:44:01;;;;;;;6.65;2.17;;;;;;;8.78;53.83;100077.66;5101900;29;20786;-67
2021/12/12 13:47:29;;;;;;;5.85;2.30;;;;;;;8.85;53.28;100072.78;5100701;29;20071;-67
2021/12/12 13:50:39;;;;;;;6.82;2.42;;;;;;;8.80;53.44;100070.44;5099909;29;20070;-68
2021/12/12 13:53:52;;;;;;;8.85;2.63;;;;;;;8.83;54.06;100067.59;5100890;29;20050;-68
2021/12/12 13:57:04;;;;;;;11.75;3.95;;;;;;;8.78;55.04;100058.28;5100890;29;20122;-68
2021/12/12 14:00:07;;;;;;;5.25;2.63;;;;;;;8.73;53.21;100055.94;5102047;29;20593;-69
2021/12/12 14:03:35;;;;;;;5.78;3.75;;;;;;;8.59;53.76;100050.78;5101332;29;20565;-70
2021/12/12 14:06:27;;;;;;;8.68;4.00;;;;;;;8.75;53.94;100056.69;5101887;29;20073;-68
2021/12/12 14:09:24;;;;;;;10.00;3.80;;;;;;;8.69;53.28;100060.59;5105380;29;20054;-70
2021/12/12 14:12:14;;;;;;;9.38;3.70;;;;;;;8.61;53.82;100064.72;5105144;29;20100;-70
2021/12/12 14:15:13;;;;;;;10.82;4.00;;;;;;;8.59;55.51;100066.63;5105572;29;20134;-70